Time;durP1;ratioP1;P1;durP2;ratioP2;P2;SDS_P1;SDS_P2;PMS_P1;PMS_P2;Temp;Humidity;BMP_temperature;BMP_pressure;BME280_temperature;BME280_humidity;BME280_pressure;Samples;Min_cycle;Max_cycle;Signal;HPM_P1;HPM_P2
2022/11/24 00:02:09;;;;;;;1.35;1.13;;;12.00;63.80;;;;;;5103292;28;20030;-68
2022/11/24 00:04:35;;;;;;;1.85;1.55;;;12.10;63.90;;;;;;5107038;28;20020;-68
2022/11/24 00:07:01;;;;;;;1.95;1.50;;;12.10;63.80;;;;;;5107261;28;20019;-68
2022/11/24 00:09:26;;;;;;;2.05;1.60;;;12.10;63.90;;;;;;5107186;28;20016;-68
2022/11/24 00:11:52;;;;;;;1.60;1.10;;;12.00;63.80;;;;;;5107167;28;20319;-68
2022/11/24 00:14:18;;;;;;;2.15;1.23;;;12.10;63.80;;;;;;5107101;28;20056;-68
2022/11/24 00:16:44;;;;;;;2.95;1.60;;;12.10;63.70;;;;;;5107072;28;20023;-68
2022/11/24 00:19:10;;;;;;;1.70;1.35;;;12.10;63.70;;;;;;5107031;28;20083;-68
2022/11/24 00:21:37;;;;;;;1.52;1.42;;;12.10;63.60;;;;;;5105613;28;20044;-67
2022/11/24 00:24:03;;;;;;;1.40;1.25;;;12.10;63.60;;;;;;5106916;28;20125;-68
2022/11/24 00:26:33;;;;;;;1.65;1.50;;;12.20;63.60;;;;;;5105732;28;20020;-68
2022/11/24 00:29:01;;;;;;;1.92;1.50;;;12.10;63.40;;;;;;5106826;28;20016;-68
2022/11/24 00:31:29;;;;;;;1.65;1.10;;;12.20;63.50;;;;;;5106777;28;20016;-68
2022/11/24 00:33:59;;;;;;;2.58;1.55;;;12.10;63.60;;;;;;5106770;28;20338;-69
2022/11/24 00:36:27;;;;;;;1.45;1.30;;;12.10;63.60;;;;;;5106684;28;20058;-67
2022/11/24 00:38:54;;;;;;;2.28;1.73;;;12.10;63.60;;;;;;5106652;28;20024;-68
2022/11/24 00:41:21;;;;;;;1.48;1.30;;;12.10;63.70;;;;;;5106525;28;20016;-67
2022/11/24 00:43:46;;;;;;;2.72;2.10;;;12.10;63.80;;;;;;5106542;28;20023;-68
2022/11/24 00:46:12;;;;;;;1.98;1.52;;;12.10;63.80;;;;;;5106497;28;20016;-67
2022/11/24 00:48:38;;;;;;;1.98;1.50;;;12.10;63.80;;;;;;5106439;28;20016;-67
2022/11/24 00:51:06;;;;;;;1.35;1.25;;;12.10;63.80;;;;;;5106390;28;20076;-67
2022/11/24 00:53:33;;;;;;;1.92;1.50;;;12.10;63.80;;;;;;5106389;28;20181;-68
2022/11/24 00:55:59;;;;;;;1.70;1.33;;;12.00;63.80;;;;;;5106310;28;20207;-68
2022/11/24 00:58:25;;;;;;;2.28;1.80;;;12.10;63.70;;;;;;5106252;28;20028;-68
2022/11/24 01:00:52;;;;;;;2.10;1.38;;;12.10;63.70;;;;;;5106127;28;20016;-68
2022/11/24 01:03:19;;;;;;;4.32;1.98;;;12.00;63.80;;;;;;5105008;28;20044;-68
2022/11/24 01:05:45;;;;;;;1.83;1.33;;;12.00;63.90;;;;;;5106127;28;20015;-68
2022/11/24 01:08:11;;;;;;;1.83;1.50;;;12.10;63.80;;;;;;5106089;28;20368;-68
2022/11/24 01:10:37;;;;;;;2.53;2.20;;;12.10;63.70;;;;;;5105999;28;20046;-68
2022/11/24 01:13:04;;;;;;;2.15;1.40;;;12.10;63.80;;;;;;5105989;28;20368;-68
2022/11/24 01:15:29;;;;;;;1.90;1.50;;;12.10;63.70;;;;;;5105569;28;20212;-67
2022/11/24 01:17:56;;;;;;;1.83;1.50;;;12.20;63.60;;;;;;5105873;28;20083;-67
2022/11/24 01:20:22;;;;;;;2.25;1.35;;;12.20;63.50;;;;;;5104447;28;20064;-67
2022/11/24 01:22:48;;;;;;;1.58;1.38;;;12.20;63.60;;;;;;5105802;28;20391;-67
2022/11/24 01:25:15;;;;;;;1.23;1.13;;;12.20;63.60;;;;;;5105712;28;20027;-68
2022/11/24 01:27:40;;;;;;;1.30;1.20;;;12.20;63.60;;;;;;5105714;28;20035;-67
2022/11/24 01:30:07;;;;;;;1.17;1.00;;;12.10;63.60;;;;;;5105612;28;20011;-67
2022/11/24 01:32:35;;;;;;;1.58;1.40;;;12.10;63.70;;;;;;5105579;28;20320;-67
2022/11/24 01:35:02;;;;;;;1.42;1.33;;;12.10;63.70;;;;;;5105556;28;20033;-68
2022/11/24 01:37:28;;;;;;;3.50;1.85;;;12.10;63.70;;;;;;5105517;28;20020;-67
2022/11/24 01:39:54;;;;;;;2.22;1.58;;;12.10;63.70;;;;;;5105455;28;20080;-67
2022/11/24 01:42:20;;;;;;;1.70;1.60;;;12.10;63.80;;;;;;5105420;28;20046;-68
2022/11/24 01:44:48;;;;;;;1.60;1.50;;;12.10;63.80;;;;;;5105352;28;20216;-67
2022/11/24 01:47:39;;;;;;;5.43;1.63;;;12.10;63.80;;;;;;5105348;28;20023;-67
2022/11/24 01:50:08;;;;;;;2.55;1.85;;;12.10;63.90;;;;;;5105293;28;20023;-67
2022/11/24 01:52:40;;;;;;;2.45;1.75;;;12.00;63.70;;;;;;5105190;28;20083;-68
2022/11/24 01:55:13;;;;;;;2.15;1.58;;;12.00;63.70;;;;;;5105166;28;20051;-68
2022/11/24 01:57:55;;;;;;;2.15;1.95;;;12.00;63.80;;;;;;5105109;28;20024;-68
2022/11/24 02:00:21;;;;;;;2.53;1.90;;;12.10;63.90;;;;;;5105016;28;20027;-67
2022/11/24 02:02:46;;;;;;;2.05;1.55;;;12.10;63.90;;;;;;5105020;28;20015;-68
2022/11/24 02:05:28;;;;;;;2.00;1.52;;;12.00;63.80;;;;;;5103797;28;20016;-68
2022/11/24 02:07:58;;;;;;;1.55;1.30;;;12.10;63.70;;;;;;5104927;28;20335;-67
2022/11/24 02:10:23;;;;;;;1.38;1.23;;;12.20;63.50;;;;;;5104895;28;20016;-67
2022/11/24 02:12:52;;;;;;;1.95;1.55;;;12.20;63.40;;;;;;5104825;28;20077;-69
2022/11/24 02:15:18;;;;;;;;;;;12.20;63.40;;;;;;5105192;28;20084;-67
2022/11/24 02:17:44;;;;;;;2.30;1.73;;;12.20;63.40;;;;;;5104713;28;19907;-68
2022/11/24 02:20:12;;;;;;;1.50;1.40;;;12.10;63.50;;;;;;5104443;28;20340;-69
2022/11/24 02:22:55;;;;;;;1.77;1.58;;;12.10;63.50;;;;;;5104617;28;20040;-67
2022/11/24 02:25:39;;;;;;;1.75;1.50;;;12.10;63.60;;;;;;5103907;28;20024;-68
2022/11/24 02:28:09;;;;;;;1.77;1.35;;;12.10;63.70;;;;;;5104577;28;20023;-67
2022/11/24 02:30:35;;;;;;;2.70;1.70;;;12.10;63.80;;;;;;5104483;28;20342;-67
2022/11/24 02:33:02;;;;;;;1.70;1.58;;;12.10;64.40;;;;;;5104444;28;20076;-68
2022/11/24 02:35:28;;;;;;;1.73;1.33;;;12.00;63.90;;;;;;5104410;28;20020;-68
2022/11/24 02:37:54;;;;;;;2.08;1.77;;;12.00;64.50;;;;;;5104343;28;20026;-67
2022/11/24 02:40:24;;;;;;;2.60;1.90;;;12.10;63.80;;;;;;5104225;28;20263;-68
2022/11/24 02:43:02;;;;;;;3.42;1.67;;;12.00;63.70;;;;;;5104318;28;20012;-68
2022/11/24 02:45:30;;;;;;;2.38;1.77;;;12.00;63.80;;;;;;5104243;28;20346;-68
2022/11/24 02:47:56;;;;;;;2.45;1.90;;;12.10;63.80;;;;;;5104190;28;20016;-68
2022/11/24 02:50:21;;;;;;;2.10;1.83;;;12.10;63.80;;;;;;5104164;28;20065;-68
2022/11/24 02:52:47;;;;;;;2.30;1.98;;;12.00;63.90;;;;;;5103714;28;20019;-68
2022/11/24 02:55:13;;;;;;;2.10;1.50;;;12.00;63.90;;;;;;5104091;28;20020;-68
2022/11/24 02:57:39;;;;;;;2.30;1.77;;;12.00;63.90;;;;;;5104036;28;20247;-68
2022/11/24 03:00:05;;;;;;;2.72;1.83;;;12.10;63.80;;;;;;5103973;28;20066;-68
2022/11/24 03:02:31;;;;;;;1.88;1.42;;;12.10;63.70;;;;;;5103967;28;20023;-69
2022/11/24 03:04:57;;;;;;;2.47;1.50;;;12.10;63.60;;;;;;5103940;28;20024;-68
2022/11/24 03:07:22;;;;;;;2.50;1.88;;;12.10;64.20;;;;;;5103912;28;20185;-68
2022/11/24 03:09:48;;;;;;;3.60;1.55;;;12.10;63.60;;;;;;5103869;28;20020;-68
2022/11/24 03:12:14;;;;;;;2.90;2.08;;;12.10;63.50;;;;;;5103802;28;20079;-67
2022/11/24 03:14:40;;;;;;;2.22;2.03;;;12.10;63.60;;;;;;5103816;28;20219;-67
2022/11/24 03:17:06;;;;;;;2.08;1.77;;;12.10;63.60;;;;;;5103772;28;20083;-68
2022/11/24 03:19:32;;;;;;;3.38;2.20;;;12.10;63.60;;;;;;5103522;28;20024;-68
2022/11/24 03:21:58;;;;;;;2.40;1.90;;;12.10;63.60;;;;;;5103688;28;20028;-67
2022/11/24 03:24:24;;;;;;;2.33;1.73;;;12.10;63.80;;;;;;5103678;28;20075;-67
2022/11/24 03:26:50;;;;;;;2.28;1.60;;;12.10;63.80;;;;;;5103666;28;20212;-68
2022/11/24 03:29:16;;;;;;;2.58;1.95;;;12.00;63.70;;;;;;5103679;28;20027;-68
2022/11/24 03:31:42;;;;;;;2.95;2.03;;;12.00;63.80;;;;;;5102489;28;20062;-68
2022/11/24 03:34:08;;;;;;;2.05;1.77;;;12.00;63.90;;;;;;5103605;28;20016;-67
2022/11/24 03:36:34;;;;;;;3.10;2.03;;;12.00;64.00;;;;;;5103980;28;20385;-68
2022/11/24 03:39:00;;;;;;;1.70;1.60;;;12.00;63.90;;;;;;5107815;28;20024;-67
2022/11/24 03:41:25;;;;;;;2.13;1.50;;;12.00;63.80;;;;;;5107674;28;20244;-67
2022/11/24 03:43:51;;;;;;;2.65;1.80;;;12.00;63.70;;;;;;5107726;28;20023;-68
2022/11/24 03:46:17;;;;;;;2.55;1.70;;;12.00;63.80;;;;;;5107661;28;20259;-67
2022/11/24 03:48:43;;;;;;;2.97;2.10;;;12.10;63.70;;;;;;5107641;28;20316;-68
2022/11/24 03:51:10;;;;;;;2.10;1.60;;;12.10;63.70;;;;;;5107558;28;20028;-67
2022/11/24 03:53:36;;;;;;;2.30;1.77;;;12.10;63.70;;;;;;5107486;28;20212;-67
2022/11/24 03:56:02;;;;;;;2.67;1.80;;;12.10;63.50;;;;;;5107473;28;20083;-68
2022/11/24 03:58:29;;;;;;;1.90;1.70;;;12.10;63.40;;;;;;5107411;28;20312;-68
2022/11/24 04:00:55;;;;;;;1.73;1.63;;;12.20;63.40;;;;;;5107312;28;20334;-68
2022/11/24 04:03:22;;;;;;;3.13;1.90;;;12.20;63.50;;;;;;5107352;28;20016;-68
2022/11/24 04:05:47;;;;;;;2.67;1.80;;;12.10;63.50;;;;;;5107262;28;20083;-68
2022/11/24 04:08:14;;;;;;;2.03;1.63;;;12.10;63.40;;;;;;5107247;28;20016;-69
2022/11/24 04:10:40;;;;;;;2.60;2.30;;;12.10;63.60;;;;;;5107181;28;20095;-68
2022/11/24 04:13:15;;;;;;;2.85;1.98;;;12.10;63.50;;;;;;5107128;28;20062;-67
2022/11/24 04:15:42;;;;;;;4.07;2.33;;;12.10;63.60;;;;;;5107081;28;20373;-69
2022/11/24 04:18:09;;;;;;;2.42;1.95;;;12.10;63.70;;;;;;5107054;28;20027;-68
2022/11/24 04:20:35;;;;;;;1.90;1.70;;;12.00;63.80;;;;;;5106735;28;20032;-68
2022/11/24 04:23:01;;;;;;;2.60;2.05;;;12.00;63.80;;;;;;5106951;28;20024;-69
2022/11/24 04:25:27;;;;;;;2.72;2.15;;;12.10;63.90;;;;;;5106903;28;20018;-68
2022/11/24 04:27:55;;;;;;;2.20;1.67;;;12.10;63.80;;;;;;5106861;28;20020;-69
2022/11/24 04:30:22;;;;;;;1.95;1.42;;;12.00;63.70;;;;;;5106867;28;20039;-68
2022/11/24 04:32:48;;;;;;;3.95;2.08;;;12.10;63.70;;;;;;5106734;28;20061;-67
2022/11/24 04:35:14;;;;;;;2.42;1.88;;;12.10;64.30;;;;;;5106748;28;20015;-68
2022/11/24 04:37:40;;;;;;;3.45;2.08;;;12.10;63.60;;;;;;5106677;28;20027;-67
2022/11/24 04:40:08;;;;;;;2.95;2.03;;;12.10;63.50;;;;;;5106548;28;20016;-68
2022/11/24 04:42:34;;;;;;;3.00;2.08;;;12.10;63.50;;;;;;5105663;28;20300;-69
2022/11/24 04:45:00;;;;;;;1.95;1.67;;;12.10;63.50;;;;;;5106521;28;20022;-67
2022/11/24 04:47:26;;;;;;;2.45;1.80;;;12.10;63.50;;;;;;5106506;28;20043;-68
2022/11/24 04:49:52;;;;;;;2.60;2.28;;;12.10;63.60;;;;;;5105694;28;20023;-68
2022/11/24 04:52:20;;;;;;;2.38;2.15;;;12.10;63.60;;;;;;5106389;28;20028;-69
2022/11/24 04:54:46;;;;;;;3.10;2.15;;;12.10;63.70;;;;;;5106316;28;20020;-68
2022/11/24 04:57:18;;;;;;;2.78;2.13;;;12.00;63.70;;;;;;5106318;28;20016;-69
2022/11/24 04:59:43;;;;;;;3.28;2.30;;;12.00;63.70;;;;;;5106299;28;20031;-68
2022/11/24 05:02:09;;;;;;;2.67;2.00;;;12.00;63.80;;;;;;5106108;28;20019;-68
2022/11/24 05:04:35;;;;;;;2.50;2.00;;;12.00;63.80;;;;;;5106172;28;20020;-68
2022/11/24 05:07:01;;;;;;;3.83;2.15;;;12.00;63.80;;;;;;5106141;28;20020;-68
2022/11/24 05:09:27;;;;;;;3.05;2.08;;;12.00;63.80;;;;;;5106094;28;20295;-68
2022/11/24 05:11:53;;;;;;;2.65;2.35;;;12.10;63.80;;;;;;5106033;28;20027;-68
2022/11/24 05:14:18;;;;;;;2.53;2.00;;;12.10;63.60;;;;;;5105973;28;20033;-67
2022/11/24 05:16:44;;;;;;;3.05;2.20;;;12.10;64.20;;;;;;5105925;28;20091;-67
2022/11/24 05:19:10;;;;;;;2.95;1.95;;;12.10;63.50;;;;;;5105870;28;20024;-67
2022/11/24 05:21:36;;;;;;;2.85;2.13;;;12.10;63.40;;;;;;5105662;28;20347;-68
2022/11/24 05:24:02;;;;;;;2.72;2.00;;;12.10;63.50;;;;;;5105821;28;20181;-68
2022/11/24 05:26:28;;;;;;;2.15;1.95;;;12.10;63.50;;;;;;5105747;28;20020;-68
2022/11/24 05:28:53;;;;;;;3.08;2.38;;;12.10;63.60;;;;;;5105760;28;20315;-67
2022/11/24 05:31:19;;;;;;;2.05;1.83;;;12.10;63.60;;;;;;5105639;28;20024;-68
2022/11/24 05:33:45;;;;;;;3.08;2.22;;;12.10;63.60;;;;;;5105628;28;20031;-68
2022/11/24 05:36:51;;;;;;;2.42;1.98;;;12.10;63.60;;;;;;5105602;28;20113;-67
2022/11/24 05:38:57;;;;;;;3.10;2.50;;;12.10;63.70;;;;;;5105283;28;20023;-68
2022/11/24 05:41:22;;;;;;;2.90;2.30;;;12.10;63.80;;;;;;5105380;28;20080;-68
2022/11/24 05:43:48;;;;;;;2.92;2.28;;;12.00;63.70;;;;;;5105433;28;20027;-68
2022/11/24 05:46:14;;;;;;;2.92;2.20;;;12.00;63.80;;;;;;5105355;28;20023;-68
2022/11/24 05:48:40;;;;;;;2.65;2.22;;;12.00;63.80;;;;;;5105303;28;20016;-68
2022/11/24 05:51:05;;;;;;;2.42;2.10;;;12.00;63.70;;;;;;5105269;28;20026;-67
2022/11/24 05:53:31;;;;;;;4.40;2.40;;;12.00;63.70;;;;;;5105223;28;20265;-68
2022/11/24 05:55:57;;;;;;;3.35;2.15;;;12.10;63.70;;;;;;5105200;28;20024;-68
2022/11/24 05:58:23;;;;;;;3.58;2.10;;;12.10;63.70;;;;;;5105128;28;20020;-68
2022/11/24 06:00:49;;;;;;;2.90;2.30;;;12.10;63.70;;;;;;5103947;28;20031;-68
2022/11/24 06:03:15;;;;;;;2.53;2.28;;;12.10;63.50;;;;;;5103826;28;20019;-68
2022/11/24 06:05:45;;;;;;;3.05;2.00;;;12.10;63.40;;;;;;5105002;28;20040;-68
2022/11/24 06:08:11;;;;;;;2.30;2.10;;;12.10;63.50;;;;;;5104986;28;20015;-68
2022/11/24 06:10:37;;;;;;;2.53;1.90;;;12.10;63.60;;;;;;5104921;28;20026;-68
2022/11/24 06:13:06;;;;;;;3.28;2.20;;;12.10;63.70;;;;;;5104858;28;20028;-67
2022/11/24 06:15:33;;;;;;;2.72;2.20;;;12.00;63.70;;;;;;5104803;28;20019;-67
2022/11/24 06:17:59;;;;;;;4.30;2.40;;;12.00;63.60;;;;;;5104774;28;20024;-68
2022/11/24 06:20:25;;;;;;;2.72;2.13;;;12.10;63.60;;;;;;5104395;28;20101;-68
2022/11/24 06:22:51;;;;;;;3.97;2.53;;;12.10;63.80;;;;;;5104679;28;20324;-68
2022/11/24 06:25:17;;;;;;;3.33;2.33;;;12.10;63.80;;;;;;5104654;28;20436;-68
2022/11/24 06:27:44;;;;;;;3.85;2.70;;;12.00;63.70;;;;;;5103414;28;20057;-69
2022/11/24 06:30:10;;;;;;;4.25;2.50;;;12.00;63.70;;;;;;5104533;28;20023;-66
2022/11/24 06:32:43;;;;;;;3.38;2.45;;;12.00;63.60;;;;;;5104456;28;20283;-66
2022/11/24 06:35:10;;;;;;;4.18;2.95;;;12.10;63.60;;;;;;5104489;28;20057;-67
2022/11/24 06:37:36;;;;;;;2.55;2.10;;;12.10;63.60;;;;;;5104386;28;20012;-68
2022/11/24 06:40:04;;;;;;;2.63;1.85;;;12.10;63.80;;;;;;5104340;28;20016;-67
2022/11/24 06:42:29;;;;;;;2.90;2.22;;;12.10;63.50;;;;;;5104284;28;20020;-67
2022/11/24 06:44:55;;;;;;;3.55;2.30;;;12.10;63.40;;;;;;5104270;28;20331;-68
2022/11/24 06:47:21;;;;;;;3.85;2.42;;;12.10;63.50;;;;;;5103068;28;20256;-67
2022/11/24 06:49:46;;;;;;;2.90;2.25;;;12.10;63.60;;;;;;5104203;28;20331;-68
2022/11/24 06:52:12;;;;;;;2.95;1.95;;;12.10;63.60;;;;;;5104139;28;20039;-67
2022/11/24 06:54:38;;;;;;;3.58;2.58;;;12.10;63.70;;;;;;5104125;28;20047;-67
2022/11/24 06:57:04;;;;;;;4.63;2.80;;;12.10;63.60;;;;;;5104079;28;20020;-67
2022/11/24 06:59:29;;;;;;;2.70;1.98;;;12.00;63.60;;;;;;5104029;28;20020;-67
2022/11/24 07:01:55;;;;;;;2.83;2.35;;;12.00;63.60;;;;;;5103911;28;20338;-68
2022/11/24 07:04:21;;;;;;;2.45;2.13;;;12.00;63.70;;;;;;5103983;28;20023;-67
2022/11/24 07:06:47;;;;;;;3.17;2.25;;;12.00;63.70;;;;;;5103947;28;20040;-68
2022/11/24 07:09:13;;;;;;;2.85;2.03;;;12.00;63.70;;;;;;5103930;28;20016;-68
2022/11/24 07:11:40;;;;;;;4.60;2.80;;;12.00;63.80;;;;;;5103542;28;20027;-67
2022/11/24 07:14:06;;;;;;;2.90;2.35;;;12.00;63.80;;;;;;5103882;28;20043;-67
2022/11/24 07:16:32;;;;;;;3.60;2.20;;;12.00;63.80;;;;;;5103837;28;20024;-67
2022/11/24 07:18:59;;;;;;;3.53;2.33;;;12.10;63.60;;;;;;5103792;28;20020;-68
2022/11/24 07:21:26;;;;;;;4.07;2.50;;;12.10;63.60;;;;;;5103508;28;20093;-68
2022/11/24 07:23:55;;;;;;;4.00;2.28;;;12.10;63.50;;;;;;5103720;28;20051;-67
2022/11/24 07:26:22;;;;;;;2.72;2.10;;;12.10;63.40;;;;;;5103707;28;20342;-69
2022/11/24 07:28:47;;;;;;;2.92;2.10;;;12.10;63.40;;;;;;5103694;28;20027;-68
2022/11/24 07:31:15;;;;;;;3.17;1.90;;;12.10;63.40;;;;;;5103668;28;20020;-68
2022/11/24 07:33:41;;;;;;;2.47;2.10;;;12.10;63.40;;;;;;5103540;28;20030;-68
2022/11/24 07:36:08;;;;;;;4.22;3.10;;;12.10;63.40;;;;;;5103625;28;20248;-69
2022/11/24 07:38:35;;;;;;;3.30;2.58;;;12.10;63.40;;;;;;5103618;28;20246;-69
2022/11/24 07:41:02;;;;;;;3.53;2.45;;;12.10;63.40;;;;;;5103475;28;20027;-68
2022/11/24 07:43:30;;;;;;;3.50;2.55;;;12.10;63.40;;;;;;5103563;28;20012;-67
2022/11/24 07:45:56;;;;;;;4.70;2.83;;;12.10;63.50;;;;;;5103526;28;20016;-67
2022/11/24 07:48:22;;;;;;;2.78;2.10;;;12.10;63.50;;;;;;5103489;28;20028;-67
2022/11/24 07:50:48;;;;;;;3.28;2.03;;;12.10;63.40;;;;;;5103477;28;20024;-67
2022/11/24 07:53:15;;;;;;;2.83;2.33;;;12.10;63.50;;;;;;5103473;28;20047;-68
2022/11/24 07:55:40;;;;;;;4.07;2.72;;;12.10;63.50;;;;;;5103450;28;20047;-67
2022/11/24 07:58:06;;;;;;;2.22;1.88;;;12.10;63.50;;;;;;5103425;28;20257;-67
2022/11/24 08:00:32;;;;;;;3.15;2.08;;;12.10;63.60;;;;;;5103289;28;20083;-67
2022/11/24 08:02:58;;;;;;;3.67;3.00;;;12.10;63.60;;;;;;5103361;28;20019;-68
2022/11/24 08:05:24;;;;;;;4.47;2.42;;;12.10;63.50;;;;;;5103326;28;20335;-67
2022/11/24 08:07:49;;;;;;;2.88;2.55;;;12.10;63.40;;;;;;5102146;28;20026;-67
2022/11/24 08:10:16;;;;;;;2.83;2.15;;;12.20;63.30;;;;;;5103280;28;20020;-67
2022/11/24 08:12:42;;;;;;;4.13;2.83;;;12.20;63.20;;;;;;5103250;28;20235;-68
2022/11/24 08:15:09;;;;;;;3.55;2.67;;;12.20;63.20;;;;;;5103248;28;20016;-69
2022/11/24 08:17:35;;;;;;;4.00;2.45;;;12.20;63.20;;;;;;5103169;28;20008;-69
2022/11/24 08:20:01;;;;;;;3.60;2.40;;;12.20;63.20;;;;;;5103018;28;20263;-68
2022/11/24 08:22:27;;;;;;;4.18;2.70;;;12.20;63.20;;;;;;5103129;28;20028;-69
2022/11/24 08:24:52;;;;;;;3.85;2.80;;;12.20;63.20;;;;;;5105581;28;20042;-69
2022/11/24 08:27:19;;;;;;;3.58;2.40;;;12.10;63.30;;;;;;5106895;28;20043;-69
2022/11/24 08:29:45;;;;;;;3.70;2.50;;;12.20;63.30;;;;;;5106895;28;20024;-68
2022/11/24 08:32:11;;;;;;;2.63;2.17;;;12.10;63.40;;;;;;5106786;28;20015;-68
2022/11/24 08:34:37;;;;;;;3.92;2.92;;;12.10;63.40;;;;;;5105592;28;20020;-68
2022/11/24 08:37:04;;;;;;;4.13;2.75;;;12.10;63.40;;;;;;5106749;28;20303;-69
2022/11/24 08:39:30;;;;;;;2.90;2.38;;;12.10;63.40;;;;;;5106671;28;20020;-68
2022/11/24 08:41:56;;;;;;;3.35;2.65;;;12.10;63.50;;;;;;5106576;28;20120;-68
2022/11/24 08:44:22;;;;;;;4.07;2.55;;;12.10;63.50;;;;;;5106591;28;20024;-68
2022/11/24 08:46:48;;;;;;;3.60;2.58;;;12.10;63.50;;;;;;5106533;28;20311;-68
2022/11/24 08:49:15;;;;;;;4.20;2.55;;;12.10;63.40;;;;;;5106496;28;20038;-69
2022/11/24 08:51:42;;;;;;;3.15;2.20;;;12.10;63.30;;;;;;5106458;28;20019;-68
2022/11/24 08:54:09;;;;;;;2.53;2.10;;;12.20;63.20;;;;;;5106417;28;20031;-68
2022/11/24 08:56:35;;;;;;;4.15;2.72;;;12.20;63.10;;;;;;5106338;28;20011;-68
2022/11/24 08:59:01;;;;;;;2.63;2.25;;;12.20;63.10;;;;;;5106332;28;20315;-69
2022/11/24 09:01:28;;;;;;;3.05;2.00;;;12.30;63.10;;;;;;5106194;28;20044;-68
2022/11/24 09:03:54;;;;;;;3.88;2.55;;;12.30;63.00;;;;;;5106226;28;20016;-68
2022/11/24 09:06:23;;;;;;;3.67;2.47;;;12.30;63.10;;;;;;5106188;28;20022;-67
2022/11/24 09:08:50;;;;;;;3.65;2.55;;;12.30;63.00;;;;;;5106168;28;20020;-69
2022/11/24 09:11:17;;;;;;;3.33;2.60;;;12.30;63.00;;;;;;5106083;28;20228;-67
2022/11/24 09:13:43;;;;;;;2.85;2.20;;;12.30;63.00;;;;;;5106042;28;20026;-68
2022/11/24 09:16:12;;;;;;;4.32;2.88;;;12.30;62.90;;;;;;5106019;28;20020;-68
2022/11/24 09:18:39;;;;;;;5.10;3.08;;;12.30;63.00;;;;;;5105975;28;20020;-69
2022/11/24 09:21:07;;;;;;;3.67;2.95;;;12.30;63.00;;;;;;5105609;28;20036;-69
2022/11/24 09:23:33;;;;;;;3.97;2.28;;;12.20;63.10;;;;;;5105899;28;20027;-68
2022/11/24 09:26:10;;;;;;;2.72;2.10;;;12.20;63.10;;;;;;5105799;28;20036;-68
2022/11/24 09:28:36;;;;;;;3.28;2.47;;;12.20;63.20;;;;;;5105807;28;20022;-67
2022/11/24 09:31:06;;;;;;;3.25;2.65;;;12.30;63.20;;;;;;5105736;28;20316;-66
2022/11/24 09:33:32;;;;;;;4.05;2.72;;;12.20;63.20;;;;;;5105662;28;20015;-67
2022/11/24 09:35:59;;;;;;;3.58;2.67;;;12.20;63.30;;;;;;5105417;28;20298;-67
2022/11/24 09:38:25;;;;;;;3.72;2.80;;;12.20;63.20;;;;;;5105544;28;20020;-67
2022/11/24 09:40:52;;;;;;;3.78;2.70;;;12.20;63.40;;;;;;5105446;28;20024;-67
2022/11/24 09:43:43;;;;;;;3.13;2.38;;;12.20;63.20;;;;;;5105408;28;20208;-66
2022/11/24 09:46:21;;;;;;;4.47;3.13;;;12.30;63.00;;;;;;5105262;28;20031;-68
2022/11/24 09:48:51;;;;;;;3.78;2.63;;;12.30;62.80;;;;;;5105393;28;20029;-68
2022/11/24 09:51:23;;;;;;;3.10;2.45;;;12.30;62.80;;;;;;5105579;28;20230;-68
2022/11/24 09:53:55;;;;;;;3.20;2.30;;;12.30;62.80;;;;;;5105310;28;20016;-68
2022/11/24 09:56:22;;;;;;;3.20;2.58;;;12.30;62.90;;;;;;5105188;28;20020;-68
2022/11/24 09:58:56;;;;;;;3.38;2.35;;;12.30;62.90;;;;;;5105150;28;20023;-67
2022/11/24 10:01:28;;;;;;;3.45;2.30;;;12.30;63.00;;;;;;5103909;28;20019;-67
2022/11/24 10:03:54;;;;;;;3.97;2.47;;;12.30;63.00;;;;;;5105093;28;20016;-67
2022/11/24 10:06:33;;;;;;;3.78;2.60;;;12.30;63.00;;;;;;5105022;28;20196;-67
2022/11/24 10:09:11;;;;;;;3.38;2.45;;;12.30;63.00;;;;;;5105268;28;20024;-67
2022/11/24 10:11:49;;;;;;;3.80;2.47;;;12.30;63.10;;;;;;5104955;28;20020;-68
2022/11/24 10:14:21;;;;;;;3.20;2.88;;;12.30;63.10;;;;;;5104917;28;20026;-67
2022/11/24 10:17:00;;;;;;;3.30;2.45;;;12.30;63.10;;;;;;5104809;28;20031;-67
2022/11/24 10:19:54;;;;;;;3.30;2.60;;;12.30;63.10;;;;;;5104804;28;20235;-67
2022/11/24 10:22:49;;;;;;;4.25;2.95;;;12.20;63.20;;;;;;5104645;28;20036;-67
2022/11/24 10:25:38;;;;;;;4.20;2.88;;;12.30;63.10;;;;;;5104670;28;20316;-68
2022/11/24 10:28:11;;;;;;;4.28;2.60;;;12.30;63.20;;;;;;5104665;28;20040;-67
2022/11/24 10:30:37;;;;;;;3.92;2.42;;;12.30;63.10;;;;;;5104570;28;20027;-68
2022/11/24 10:33:07;;;;;;;3.38;2.30;;;12.30;63.10;;;;;;5104501;28;20027;-68
2022/11/24 10:35:47;;;;;;;3.10;2.40;;;12.30;63.00;;;;;;5104443;28;20034;-68
2022/11/24 10:38:21;;;;;;;4.82;2.53;;;12.30;63.00;;;;;;5103273;28;20020;-68
2022/11/24 10:40:56;;;;;;;3.72;2.80;;;12.40;62.80;;;;;;5104340;28;20189;-68
2022/11/24 10:43:24;;;;;;;5.35;2.70;;;12.40;62.60;;;;;;5104352;28;20034;-69
2022/11/24 10:45:50;;;;;;;4.27;2.70;;;12.50;62.60;;;;;;5103096;28;20238;-67
2022/11/24 10:48:24;;;;;;;3.50;2.53;;;12.40;62.60;;;;;;5103763;28;20042;-68
2022/11/24 10:50:56;;;;;;;3.17;2.63;;;12.50;62.60;;;;;;5104226;28;20079;-68
2022/11/24 10:53:28;;;;;;;3.20;2.53;;;12.50;62.60;;;;;;5104166;28;20018;-68
2022/11/24 10:55:56;;;;;;;4.93;3.03;;;12.50;62.70;;;;;;5104145;28;20015;-67
2022/11/24 10:58:44;;;;;;;3.95;2.80;;;12.50;62.60;;;;;;5104122;28;20030;-68
2022/11/24 11:01:12;;;;;;;3.25;2.55;;;12.40;62.60;;;;;;5103503;28;20036;-67
2022/11/24 11:03:50;;;;;;;4.18;2.90;;;12.40;62.60;;;;;;5104028;28;20050;-67
2022/11/24 11:06:25;;;;;;;3.55;2.38;;;12.50;62.70;;;;;;5104019;28;20022;-67
2022/11/24 11:09:06;;;;;;;3.15;2.38;;;12.40;62.70;;;;;;5103952;28;20079;-68
2022/11/24 11:11:32;;;;;;;2.60;2.05;;;12.50;62.70;;;;;;5103892;28;20016;-67
2022/11/24 11:14:01;;;;;;;3.70;2.22;;;12.40;62.70;;;;;;5103844;28;20088;-68
2022/11/24 11:16:42;;;;;;;3.97;2.63;;;12.50;62.70;;;;;;5103853;28;20019;-68
2022/11/24 11:19:39;;;;;;;5.38;3.13;;;12.40;62.60;;;;;;5103843;28;20030;-68
2022/11/24 11:22:14;;;;;;;4.07;2.20;;;12.40;62.70;;;;;;5103728;28;20040;-68
2022/11/24 11:24:45;;;;;;;3.60;2.50;;;12.40;62.70;;;;;;5103711;28;20012;-67
2022/11/24 11:27:20;;;;;;;3.42;2.65;;;12.40;62.70;;;;;;5103736;28;20020;-68
2022/11/24 11:29:48;;;;;;;3.83;2.55;;;12.40;62.60;;;;;;5103674;28;20016;-67
2022/11/24 11:32:32;;;;;;;3.65;2.47;;;12.50;62.60;;;;;;5103637;28;20027;-67
2022/11/24 11:34:58;;;;;;;3.05;2.28;;;12.40;62.60;;;;;;5103632;28;20027;-67
2022/11/24 11:37:27;;;;;;;3.25;2.47;;;12.40;62.70;;;;;;5103622;28;20016;-68
2022/11/24 11:39:55;;;;;;;3.72;2.60;;;12.40;62.60;;;;;;5103603;28;20020;-68
2022/11/24 11:42:33;;;;;;;3.17;2.63;;;12.50;62.70;;;;;;5103474;28;20065;-68
2022/11/24 11:45:14;;;;;;;3.92;2.65;;;12.40;62.70;;;;;;5103532;28;20016;-68
2022/11/24 11:47:47;;;;;;;3.97;2.47;;;12.50;62.60;;;;;;5103537;28;20011;-67
2022/11/24 11:50:16;;;;;;;2.95;2.40;;;12.50;62.60;;;;;;5103513;28;20027;-68
2022/11/24 11:53:03;;;;;;;4.35;2.97;;;12.50;62.60;;;;;;5103490;28;20308;-66
2022/11/24 11:55:53;;;;;;;3.90;2.50;;;12.50;62.40;;;;;;5103454;28;20402;-67
2022/11/24 11:58:31;;;;;;;2.50;2.00;;;12.50;62.50;;;;;;5105105;28;20319;-68
2022/11/24 12:01:01;;;;;;;4.05;2.67;;;12.50;62.50;;;;;;5107406;28;20034;-68
2022/11/24 12:03:33;;;;;;;3.03;2.40;;;12.50;62.50;;;;;;5107389;28;20061;-68
2022/11/24 12:06:19;;;;;;;3.33;2.53;;;12.50;62.50;;;;;;5107356;28;20121;-67
2022/11/24 12:09:27;;;;;;;4.38;2.92;;;12.50;62.60;;;;;;5107305;28;20028;-68
2022/11/24 12:12:38;;;;;;;4.25;2.70;;;12.50;62.70;;;;;;5107255;28;20085;-69
2022/11/24 12:15:16;;;;;;;3.60;2.38;;;12.40;62.70;;;;;;5107208;28;20320;-69
2022/11/24 12:17:58;;;;;;;3.38;2.45;;;12.40;62.80;;;;;;5107124;28;20322;-67
2022/11/24 12:21:01;;;;;;;4.43;2.65;;;12.40;62.80;;;;;;5106867;28;20114;-67
2022/11/24 12:23:51;;;;;;;4.07;2.47;;;12.50;62.60;;;;;;5107015;28;20019;-68
2022/11/24 12:26:33;;;;;;;3.58;2.60;;;12.60;62.40;;;;;;5107013;28;20012;-68
2022/11/24 12:29:27;;;;;;;3.17;2.58;;;12.60;62.10;;;;;;5106947;28;20016;-68
2022/11/24 12:32:30;;;;;;;3.08;2.40;;;12.70;61.90;;;;;;5106884;28;20020;-67
2022/11/24 12:35:05;;;;;;;4.57;2.38;;;12.90;61.70;;;;;;5106796;28;20308;-69
2022/11/24 12:37:39;;;;;;;2.78;2.33;;;12.80;61.60;;;;;;5106805;28;20020;-68
2022/11/24 12:40:05;;;;;;;4.10;2.60;;;12.80;61.70;;;;;;5106733;28;20012;-68
2022/11/24 12:42:54;;;;;;;3.38;2.50;;;12.80;61.80;;;;;;5106597;28;20034;-67
2022/11/24 12:45:38;;;;;;;2.95;2.40;;;12.70;61.90;;;;;;5098363;28;20087;-67
2022/11/24 12:48:34;;;;;;;2.80;2.20;;;12.70;62.10;;;;;;5106581;28;20075;-66
2022/11/24 12:51:03;;;;;;;3.05;2.45;;;12.70;62.20;;;;;;5106552;28;20086;-67
2022/11/24 12:53:32;;;;;;;3.50;2.28;;;12.70;62.30;;;;;;5106483;28;20019;-67
2022/11/24 12:56:05;;;;;;;4.30;3.03;;;12.70;62.20;;;;;;5106423;28;20035;-68
2022/11/24 12:58:52;;;;;;;3.72;2.63;;;12.60;62.30;;;;;;5106408;28;20042;-68
2022/11/24 13:01:21;;;;;;;3.10;2.67;;;12.60;62.40;;;;;;5106236;28;20066;-68